createdAt,value
2023-03-22T00:00:05.978Z,11.50
2023-03-22T00:02:35.597Z,11.40
2023-03-22T00:05:03.836Z,11.40
2023-03-22T00:07:32.321Z,11.30
2023-03-22T00:10:00.563Z,11.30
2023-03-22T00:12:28.775Z,11.20
2023-03-22T00:14:57.319Z,11.20
2023-03-22T00:17:27.576Z,11.20
2023-03-22T00:19:58.317Z,11.20
2023-03-22T00:22:26.618Z,11.20
2023-03-22T00:24:54.933Z,11.20
2023-03-22T00:27:23.165Z,11.20
2023-03-22T00:29:53.791Z,11.20
2023-03-22T00:32:22.231Z,11.10
2023-03-22T00:34:51.504Z,11.10
2023-03-22T00:37:21.069Z,11.00
2023-03-22T00:39:49.227Z,11.00
2023-03-22T00:42:17.414Z,11.00
2023-03-22T00:44:45.591Z,11.00
2023-03-22T00:47:14.125Z,11.00
2023-03-22T00:49:42.353Z,11.00
2023-03-22T00:52:10.801Z,11.00
2023-03-22T00:54:40.640Z,10.90
2023-03-22T00:57:08.938Z,10.80
2023-03-22T00:59:38.846Z,10.80
2023-03-22T01:02:08.266Z,10.80
2023-03-22T01:04:37.242Z,10.70
2023-03-22T01:07:07.752Z,10.70
2023-03-22T01:09:37.505Z,10.70
2023-03-22T01:12:07.666Z,10.60
2023-03-22T01:14:36.040Z,10.60
2023-03-22T01:17:04.580Z,10.60
2023-03-22T01:19:32.857Z,10.60
2023-03-22T01:22:01.529Z,10.50
2023-03-22T01:24:30.338Z,10.50
2023-03-22T01:26:58.647Z,10.40
2023-03-22T01:29:28.268Z,10.30
2023-03-22T01:31:56.451Z,10.30
2023-03-22T01:34:25.021Z,10.20
2023-03-22T01:36:54.462Z,10.10
2023-03-22T01:39:23.950Z,10.00
2023-03-22T01:41:57.197Z,9.90
2023-03-22T01:44:31.459Z,9.90
2023-03-22T01:47:01.565Z,9.80
2023-03-22T01:49:35.690Z,9.70
2023-03-22T01:52:09.653Z,9.70
2023-03-22T01:54:53.530Z,9.60
2023-03-22T01:57:33.390Z,9.60
2023-03-22T02:00:10.970Z,9.60
2023-03-22T02:02:42.403Z,9.50
2023-03-22T02:05:23.226Z,9.50
2023-03-22T02:07:53.003Z,9.50
2023-03-22T02:10:28.067Z,9.50
2023-03-22T02:13:28.215Z,9.40
2023-03-22T02:16:31.043Z,9.30
2023-03-22T02:19:42.568Z,9.30
2023-03-22T02:22:49.966Z,9.20
2023-03-22T02:25:49.530Z,9.10
2023-03-22T02:28:34.130Z,9.10
2023-03-22T02:31:40.728Z,9.10
2023-03-22T02:34:37.376Z,9.10
2023-03-22T02:37:54.570Z,9.10
2023-03-22T02:40:33.016Z,9.10
2023-03-22T02:43:10.359Z,9.20
2023-03-22T02:45:49.436Z,9.20
2023-03-22T02:48:27.845Z,9.20
2023-03-22T02:51:01.601Z,9.20
2023-03-22T02:53:37.454Z,9.20
2023-03-22T02:56:14.110Z,9.20
2023-03-22T02:58:47.494Z,9.10
2023-03-22T03:01:24.753Z,9.10
2023-03-22T03:03:58.278Z,9.00
2023-03-22T03:06:31.113Z,9.00
2023-03-22T03:09:02.766Z,8.90
2023-03-22T03:11:33.038Z,8.90
2023-03-22T03:14:02.197Z,8.80
2023-03-22T03:16:36.705Z,8.70
2023-03-22T03:19:19.849Z,8.70
2023-03-22T03:22:02.421Z,8.60
2023-03-22T03:24:39.823Z,8.50
2023-03-22T03:27:20.129Z,8.50
2023-03-22T03:29:56.422Z,8.40
2023-03-22T03:32:35.225Z,8.30
2023-03-22T03:35:17.994Z,8.30
2023-03-22T03:37:50.655Z,8.20
2023-03-22T03:40:25.859Z,8.20
2023-03-22T03:42:58.826Z,8.10
2023-03-22T03:45:27.421Z,8.00
2023-03-22T03:48:02.315Z,8.00
2023-03-22T03:50:31.129Z,7.90
2023-03-22T03:52:59.931Z,7.90
2023-03-22T03:55:29.302Z,7.80
2023-03-22T03:57:59.052Z,7.80
2023-03-22T04:00:27.383Z,7.70
2023-03-22T04:03:19.310Z,7.70
2023-03-22T04:06:06.649Z,7.60
2023-03-22T04:08:38.713Z,7.60
2023-03-22T04:11:08.138Z,7.60
2023-03-22T04:13:38.358Z,7.50
2023-03-22T04:16:11.667Z,7.50
2023-03-22T04:18:39.945Z,7.50
2023-03-22T04:21:12.113Z,7.50
2023-03-22T04:23:50.122Z,7.50
2023-03-22T04:26:19.854Z,7.50
2023-03-22T04:29:04.257Z,7.50
2023-03-22T04:31:35.691Z,7.60
2023-03-22T04:34:15.176Z,7.60
2023-03-22T04:36:53.163Z,7.60
2023-03-22T04:39:45.662Z,7.60
2023-03-22T04:42:32.310Z,7.60
2023-03-22T04:45:15.504Z,7.60
2023-03-22T04:47:47.209Z,7.60
2023-03-22T04:50:15.594Z,7.60
2023-03-22T04:52:50.893Z,7.70
2023-03-22T04:55:19.323Z,7.70
2023-03-22T04:57:47.575Z,7.70
2023-03-22T05:00:18.702Z,7.70
2023-03-22T05:02:47.115Z,7.70
2023-03-22T05:05:27.244Z,7.70
2023-03-22T05:07:56.253Z,7.70
2023-03-22T05:10:25.816Z,7.60
2023-03-22T05:12:55.311Z,7.60
2023-03-22T05:15:28.497Z,7.50
2023-03-22T05:17:56.688Z,7.50
2023-03-22T05:20:25.303Z,7.50
2023-03-22T05:23:19.241Z,7.40
2023-03-22T05:25:51.845Z,7.40
2023-03-22T05:28:22.366Z,7.40
2023-03-22T05:31:24.815Z,7.30
2023-03-22T05:33:58.342Z,7.30
2023-03-22T05:36:29.746Z,7.30
2023-03-22T05:39:21.186Z,7.20
2023-03-22T05:41:49.731Z,7.20
2023-03-22T05:44:18.385Z,7.20
2023-03-22T05:47:03.724Z,7.20
2023-03-22T05:49:35.851Z,7.20
2023-03-22T05:52:06.046Z,7.20
2023-03-22T05:55:07.907Z,7.20
2023-03-22T05:57:36.480Z,7.30
2023-03-22T06:00:13.249Z,7.30
2023-03-22T06:02:48.269Z,7.30
2023-03-22T06:05:18.437Z,7.30
2023-03-22T06:07:47.653Z,7.30
2023-03-22T06:10:18.280Z,7.40
2023-03-22T06:12:47.378Z,7.40
2023-03-22T06:15:24.393Z,7.40
2023-03-22T06:18:02.980Z,7.40
2023-03-22T06:20:35.320Z,7.40
2023-03-22T06:23:10.525Z,7.50
2023-03-22T06:25:41.036Z,7.50
2023-03-22T06:28:09.468Z,7.50
2023-03-22T06:30:40.158Z,7.60
2023-03-22T06:33:48.856Z,7.70
2023-03-22T06:36:31.681Z,7.70
2023-03-22T06:39:15.218Z,7.80
2023-03-22T06:41:45.893Z,7.90
2023-03-22T06:44:14.802Z,8.00
2023-03-22T06:47:03.786Z,8.10
2023-03-22T06:50:00.453Z,8.20
2023-03-22T06:52:43.131Z,8.40
2023-03-22T06:55:11.478Z,8.50
2023-03-22T06:57:39.742Z,8.70
2023-03-22T07:00:12.796Z,8.80
2023-03-22T07:02:41.071Z,9.00
2023-03-22T07:05:27.881Z,9.10
2023-03-22T07:07:56.143Z,9.20
2023-03-22T07:10:24.637Z,9.40
2023-03-22T07:12:52.966Z,9.50
2023-03-22T07:15:24.418Z,9.60
2023-03-22T07:18:02.037Z,9.80
2023-03-22T07:20:36.730Z,9.90
2023-03-22T07:23:05.875Z,10.00
2023-03-22T07:25:40.386Z,10.20
2023-03-22T07:28:29.565Z,10.30
2023-03-22T07:31:03.804Z,10.40
2023-03-22T07:33:42.231Z,10.60
2023-03-22T07:36:12.944Z,10.70
2023-03-22T07:38:41.878Z,10.80
2023-03-22T07:41:15.772Z,11.00
2023-03-22T07:44:11.216Z,11.10
2023-03-22T07:46:52.441Z,11.30
2023-03-22T07:49:28.188Z,11.40
2023-03-22T07:52:11.120Z,11.60
2023-03-22T07:54:39.487Z,11.70
2023-03-22T07:57:09.434Z,11.90
2023-03-22T07:59:46.147Z,12.00
2023-03-22T08:02:16.062Z,12.20
2023-03-22T08:04:52.255Z,12.30
2023-03-22T08:07:56.924Z,12.50
2023-03-22T08:10:25.337Z,12.60
2023-03-22T08:12:54.598Z,12.80
2023-03-22T08:15:26.575Z,12.90
2023-03-22T08:17:57.793Z,13.00
2023-03-22T08:20:34.111Z,13.10
2023-03-22T08:23:12.085Z,13.20
2023-03-22T08:26:13.016Z,13.40
2023-03-22T08:28:41.984Z,13.50
2023-03-22T08:31:15.501Z,13.70
2023-03-22T08:33:46.190Z,13.80
2023-03-22T08:36:17.417Z,14.00
2023-03-22T08:38:53.762Z,14.10
2023-03-22T08:41:30.343Z,14.30
2023-03-22T08:43:58.751Z,14.40
2023-03-22T08:46:27.052Z,14.50
2023-03-22T08:48:55.454Z,14.70
2023-03-22T08:51:32.169Z,14.80
2023-03-22T08:54:15.691Z,15.00
2023-03-22T08:57:03.475Z,15.10
2023-03-22T08:59:47.192Z,15.20
2023-03-22T09:02:35.600Z,15.40
2023-03-22T09:05:04.872Z,15.60
2023-03-22T09:07:33.813Z,15.70
2023-03-22T09:10:18.001Z,15.90
2023-03-22T09:12:49.171Z,16.00
2023-03-22T09:15:17.901Z,16.10
2023-03-22T09:17:50.249Z,16.10
2023-03-22T09:20:18.822Z,16.30
2023-03-22T09:22:48.757Z,16.40
2023-03-22T09:25:21.265Z,16.50
2023-03-22T09:27:51.088Z,16.60
2023-03-22T09:30:19.255Z,16.80
2023-03-22T09:32:47.807Z,17.00
2023-03-22T09:35:17.915Z,17.10
2023-03-22T09:37:58.842Z,17.30
2023-03-22T09:40:32.845Z,17.40
2023-03-22T09:43:07.232Z,17.60
2023-03-22T09:45:41.744Z,17.70
2023-03-22T09:48:20.610Z,17.70
2023-03-22T09:50:52.651Z,17.80
2023-03-22T09:53:23.607Z,17.90
2023-03-22T09:56:01.696Z,18.00
2023-03-22T09:58:36.774Z,18.10
2023-03-22T10:01:19.619Z,18.30
2023-03-22T10:04:26.159Z,18.50
2023-03-22T10:07:10.227Z,18.60
2023-03-22T10:09:54.208Z,18.70
2023-03-22T10:12:30.453Z,18.90
2023-03-22T10:15:07.708Z,19.10
2023-03-22T10:17:39.980Z,19.20
2023-03-22T10:20:22.316Z,19.10
2023-03-22T10:22:53.697Z,19.30
2023-03-22T10:25:32.744Z,19.50
2023-03-22T10:28:03.497Z,19.60
2023-03-22T10:30:40.589Z,19.70
2023-03-22T10:33:17.691Z,19.70
2023-03-22T10:35:46.980Z,19.90
2023-03-22T10:38:24.733Z,20.20
2023-03-22T10:40:56.634Z,20.30
2023-03-22T10:43:33.735Z,20.60
2023-03-22T10:46:05.058Z,20.70
2023-03-22T10:48:37.239Z,20.80
2023-03-22T10:51:07.496Z,21.00
2023-03-22T10:53:41.991Z,21.20
2023-03-22T10:56:15.576Z,21.60
2023-03-22T10:58:45.969Z,21.90
2023-03-22T11:01:17.983Z,22.00
2023-03-22T11:03:52.402Z,21.70
2023-03-22T11:06:25.747Z,21.40
2023-03-22T11:08:57.940Z,21.40
2023-03-22T11:11:30.306Z,21.40
2023-03-22T11:14:09.541Z,21.30
2023-03-22T11:16:48.445Z,21.20
2023-03-22T11:19:25.775Z,21.00
2023-03-22T11:21:56.187Z,21.20
2023-03-22T11:24:27.347Z,21.40
2023-03-22T11:27:08.261Z,21.70
2023-03-22T11:29:47.531Z,21.90
2023-03-22T11:32:28.785Z,22.20
2023-03-22T11:35:03.537Z,22.30
2023-03-22T11:37:32.038Z,22.40
2023-03-22T11:40:05.300Z,22.70
2023-03-22T11:42:36.733Z,22.90
2023-03-22T11:45:09.437Z,22.80
2023-03-22T11:47:40.194Z,23.00
2023-03-22T11:50:22.185Z,23.10
2023-03-22T11:52:50.659Z,23.10
2023-03-22T11:55:19.674Z,23.00
2023-03-22T11:57:51.909Z,23.00
2023-03-22T12:00:26.964Z,23.30
2023-03-22T12:03:00.396Z,23.70
2023-03-22T12:05:32.932Z,23.80
2023-03-22T12:08:10.359Z,24.10
2023-03-22T12:10:42.815Z,24.50
2023-03-22T12:13:19.701Z,24.90
2023-03-22T12:15:55.824Z,25.30
2023-03-22T12:18:30.693Z,25.60
2023-03-22T12:21:01.991Z,25.90
2023-03-22T12:23:35.263Z,26.30
2023-03-22T12:26:08.344Z,26.50
2023-03-22T12:28:42.700Z,26.50
2023-03-22T12:31:19.550Z,26.30
2023-03-22T12:33:51.263Z,26.00
2023-03-22T12:36:24.548Z,25.80
2023-03-22T12:38:57.049Z,25.60
2023-03-22T12:41:32.584Z,25.60
2023-03-22T12:44:05.122Z,25.90
2023-03-22T12:46:45.499Z,26.30
2023-03-22T12:49:24.392Z,27.00
2023-03-22T12:52:01.424Z,27.60
2023-03-22T12:54:30.573Z,28.00
2023-03-22T12:56:59.418Z,28.00
2023-03-22T12:59:32.463Z,27.90
2023-03-22T13:02:15.631Z,28.00
2023-03-22T13:04:56.836Z,28.10
2023-03-22T13:07:51.422Z,27.30
2023-03-22T13:10:50.844Z,26.70
2023-03-22T13:13:45.247Z,26.20
2023-03-22T13:16:24.649Z,25.80
2023-03-22T13:19:04.406Z,25.70
2023-03-22T13:21:36.665Z,25.80
2023-03-22T13:24:24.164Z,26.10
2023-03-22T13:26:54.634Z,26.50
2023-03-22T13:29:25.902Z,26.60
2023-03-22T13:32:01.088Z,26.20
2023-03-22T13:34:39.393Z,25.80
2023-03-22T13:37:12.653Z,25.40
2023-03-22T13:39:41.916Z,25.10
2023-03-22T13:42:21.589Z,24.80
2023-03-22T13:44:59.919Z,24.90
2023-03-22T13:47:38.430Z,25.10
2023-03-22T13:50:19.900Z,25.20
2023-03-22T13:52:59.904Z,25.70
2023-03-22T13:55:43.705Z,25.80
2023-03-22T13:58:32.951Z,25.70
2023-03-22T14:01:02.117Z,25.80
2023-03-22T14:03:35.470Z,25.90
2023-03-22T14:06:15.914Z,26.40
2023-03-22T14:08:48.242Z,26.50
2023-03-22T14:11:26.636Z,26.90
2023-03-22T14:14:01.385Z,27.30
2023-03-22T14:16:41.258Z,27.70
2023-03-22T14:19:17.393Z,27.90
